Lennox, California
Current Conditions -  °F | °C
As of 1:53 PM on Sunday 23 Nov 2014 (Local Time) from KHHR Reporting Station
Clear Clear  
Wind Chill: 24°   Ceiling: Unl
Heat Index: 24°   Visibility: 10mi
Dew Point:   Wind: 10mph
Humidity: 23%   Direction: 240°WSW
Pressure: 30.06"   Gusts: NA
Location:  33.94°N, 118.35°W
Report Text: KHHR 232153Z 24009KT 10SM CLR 24/02 A3006 RMK AO2 SLP179 T02440017
Loading
Personal Weather Stations






























Interactive Weather Map New forecast layout! Learn more

10-Day Weather Forecast

Advertisements
Track Severe Weather on mobile